Time;durP1;ratioP1;P1;durP2;ratioP2;P2;SDS_P1;SDS_P2;PMS_P1;PMS_P2;Temp;Humidity;BMP_temperature;BMP_pressure;BME280_temperature;BME280_humidity;BME280_pressure;Samples;Min_cycle;Max_cycle;Signal;HPM_P1;HPM_P2
2023/06/18 06:09:35;;;;;;;5.32;4.97;;;25.60;34.80;;;;;;5185789;23;20321;-65
2023/06/18 06:12:01;;;;;;;5.57;4.97;;;25.70;34.60;;;;;;4977297;28;20551;-65
2023/06/18 06:14:28;;;;;;;5.60;5.10;;;26.00;34.10;;;;;;4978121;28;20217;-65
2023/06/18 06:16:57;;;;;;;5.10;4.80;;;26.20;33.50;;;;;;4976973;28;20206;-65
2023/06/18 06:19:24;;;;;;;5.40;4.88;;;26.50;33.00;;;;;;4977390;28;20301;-64
2023/06/18 06:21:51;;;;;;;5.03;4.63;;;26.80;33.10;;;;;;4977762;28;20210;-64
2023/06/18 06:24:17;;;;;;;4.93;4.53;;;27.10;32.10;;;;;;4978154;28;20822;-66
2023/06/18 06:26:45;;;;;;;5.18;4.75;;;27.40;31.50;;;;;;4977470;28;20221;-66
2023/06/18 06:29:12;;;;;;;4.90;4.50;;;27.80;30.90;;;;;;4977781;28;20626;-66
2023/06/18 06:31:39;;;;;;;5.00;4.70;;;28.10;30.40;;;;;;4977353;28;20210;-66
2023/06/18 06:34:06;;;;;;;4.60;4.20;;;28.60;29.80;;;;;;4977321;28;20203;-67
2023/06/18 06:36:33;;;;;;;4.60;4.30;;;28.80;29.40;;;;;;4977356;28;20207;-67
2023/06/18 06:39:01;;;;;;;4.28;4.07;;;29.30;29.10;;;;;;4977152;28;20237;-67
2023/06/18 06:41:27;;;;;;;4.43;4.03;;;29.70;29.00;;;;;;4976995;28;20611;-66
2023/06/18 06:43:55;;;;;;;4.38;4.15;;;29.90;27.90;;;;;;4976425;28;20578;-66
2023/06/18 06:46:22;;;;;;;4.82;4.30;;;30.00;27.70;;;;;;4976871;28;20213;-65
2023/06/18 06:48:49;;;;;;;5.57;5.05;;;30.00;27.60;;;;;;4976644;28;20215;-66
2023/06/18 06:51:15;;;;;;;5.18;4.78;;;30.00;27.30;;;;;;4976246;28;20205;-66
2023/06/18 06:53:42;;;;;;;5.22;4.93;;;30.20;27.40;;;;;;4976515;28;20203;-66
2023/06/18 06:56:10;;;;;;;4.70;4.40;;;30.40;26.90;;;;;;4976375;28;20202;-67
2023/06/18 06:58:37;;;;;;;4.55;4.15;;;30.70;26.90;;;;;;4976260;28;20231;-66
2023/06/18 07:01:05;;;;;;;5.25;4.75;;;30.90;26.30;;;;;;4976382;28;20203;-66
2023/06/18 07:03:31;;;;;;;4.72;4.43;;;31.30;26.10;;;;;;4976273;28;20210;-66
2023/06/18 07:05:58;;;;;;;4.30;4.00;;;31.80;25.90;;;;;;4976742;28;20206;-67
2023/06/18 07:08:25;;;;;;;3.70;3.50;;;32.00;25.40;;;;;;4976365;28;20219;-65
2023/06/18 07:10:51;;;;;;;4.05;3.75;;;32.40;25.00;;;;;;4976352;28;20211;-67
2023/06/18 07:13:18;;;;;;;4.55;4.13;;;32.70;24.70;;;;;;4976280;28;20214;-66
2023/06/18 07:15:45;;;;;;;4.65;4.35;;;32.90;24.20;;;;;;4976215;28;20293;-65
2023/06/18 07:18:13;;;;;;;4.05;3.85;;;33.00;24.10;;;;;;4976005;28;20309;-65
2023/06/18 07:20:40;;;;;;;4.28;3.97;;;33.00;23.70;;;;;;4976045;28;20230;-66
2023/06/18 07:23:07;;;;;;;3.95;3.75;;;32.90;23.70;;;;;;4976027;28;20199;-66
2023/06/18 07:25:33;;;;;;;3.70;3.50;;;32.70;23.60;;;;;;4975650;28;20206;-65
2023/06/18 07:28:00;;;;;;;4.30;4.00;;;32.70;24.00;;;;;;4975412;28;20602;-66
2023/06/18 07:30:27;;;;;;;3.90;3.60;;;32.90;23.60;;;;;;4975807;28;20207;-66
2023/06/18 07:32:53;;;;;;;3.95;3.72;;;33.00;22.90;;;;;;4975756;28;20207;-67
2023/06/18 07:35:21;;;;;;;5.50;5.10;;;33.20;23.00;;;;;;4975427;28;20214;-67
2023/06/18 07:37:49;;;;;;;4.22;3.92;;;32.80;23.10;;;;;;4975656;28;20207;-67
2023/06/18 07:40:16;;;;;;;4.72;4.10;;;32.70;23.30;;;;;;4975614;28;20627;-67
2023/06/18 07:42:43;;;;;;;4.38;4.07;;;32.40;23.50;;;;;;4975360;28;20210;-67
2023/06/18 07:45:10;;;;;;;4.30;4.10;;;32.00;23.90;;;;;;4975497;28;20225;-67
2023/06/18 07:47:37;;;;;;;4.82;4.43;;;31.30;24.20;;;;;;4975533;28;20297;-64
2023/06/18 07:50:07;;;;;;;4.00;3.80;;;30.60;25.10;;;;;;4975177;28;20203;-64
2023/06/18 07:52:35;;;;;;;4.32;4.13;;;30.00;25.30;;;;;;4975826;28;20556;-65
2023/06/18 07:55:01;;;;;;;4.55;4.25;;;29.50;26.10;;;;;;4975396;28;20199;-65
2023/06/18 07:57:28;;;;;;;3.92;3.72;;;29.00;26.70;;;;;;4975371;28;20229;-65
2023/06/18 07:59:55;;;;;;;4.13;3.92;;;28.70;27.20;;;;;;4975352;28;20227;-65
2023/06/18 08:02:21;;;;;;;4.60;4.30;;;28.50;27.40;;;;;;4974707;28;20202;-65
2023/06/18 08:04:48;;;;;;;5.20;4.80;;;28.00;27.70;;;;;;4975631;28;20202;-65
2023/06/18 08:07:15;;;;;;;4.75;4.35;;;27.60;28.40;;;;;;4975900;28;20298;-64
2023/06/18 08:09:43;;;;;;;4.50;4.15;;;27.30;28.70;;;;;;4975183;28;20215;-64
2023/06/18 08:12:11;;;;;;;5.80;4.80;;;27.00;28.70;;;;;;4975153;28;20264;-65
2023/06/18 08:14:37;;;;;;;4.93;4.63;;;26.70;28.80;;;;;;4975395;28;20634;-65
2023/06/18 08:17:04;;;;;;;5.10;4.70;;;26.50;28.50;;;;;;4976124;28;20229;-65
2023/06/18 08:19:31;;;;;;;4.95;4.60;;;26.30;29.10;;;;;;4975228;28;20252;-65
2023/06/18 08:21:58;;;;;;;4.90;4.50;;;26.20;30.10;;;;;;4975061;28;20690;-64
2023/06/18 08:24:25;;;;;;;4.40;4.05;;;26.40;30.70;;;;;;4974978;28;20210;-65
2023/06/18 08:26:53;;;;;;;4.22;4.03;;;26.60;30.70;;;;;;4975220;28;20539;-65
2023/06/18 08:29:20;;;;;;;4.20;3.95;;;26.70;29.30;;;;;;4975065;28;20227;-65
2023/06/18 08:31:46;;;;;;;3.90;3.70;;;26.90;29.10;;;;;;4975134;28;20205;-66
2023/06/18 08:34:13;;;;;;;4.15;3.75;;;27.00;28.70;;;;;;4974896;28;20586;-66
2023/06/18 08:36:40;;;;;;;4.20;3.85;;;27.00;28.50;;;;;;4974933;28;20539;-64
2023/06/18 08:39:07;;;;;;;4.00;3.70;;;27.00;28.30;;;;;;4974906;28;20225;-64
2023/06/18 08:41:33;;;;;;;4.38;4.10;;;26.90;28.60;;;;;;4974907;28;20209;-65
2023/06/18 08:44:01;;;;;;;4.63;4.22;;;26.90;28.70;;;;;;4975154;28;20211;-66
2023/06/18 08:46:32;;;;;;;3.63;3.42;;;26.80;28.90;;;;;;4974953;28;20202;-65
2023/06/18 08:49:00;;;;;;;5.03;4.63;;;26.90;29.30;;;;;;4974960;28;20670;-65
2023/06/18 08:51:27;;;;;;;4.57;4.28;;;26.80;29.40;;;;;;4975145;28;20206;-66
2023/06/18 08:54:02;;;;;;;4.40;4.10;;;26.90;29.40;;;;;;4974707;28;20729;-66
2023/06/18 08:56:30;;;;;;;4.13;3.72;;;27.00;29.20;;;;;;4975454;28;20199;-67
2023/06/18 08:58:58;;;;;;;4.53;4.13;;;26.90;29.00;;;;;;4975611;28;20233;-67
2023/06/18 09:01:27;;;;;;;3.30;3.20;;;26.90;28.70;;;;;;4975155;28;20214;-65
2023/06/18 09:03:55;;;;;;;3.88;3.58;;;26.90;28.90;;;;;;4974969;28;20213;-65
2023/06/18 09:06:23;;;;;;;3.72;3.53;;;26.80;28.30;;;;;;4974998;28;20210;-67
2023/06/18 09:08:50;;;;;;;4.85;4.32;;;26.80;28.30;;;;;;4975056;28;20575;-66
2023/06/18 09:11:17;;;;;;;4.00;3.70;;;26.80;28.30;;;;;;4974707;28;20215;-67
2023/06/18 09:13:44;;;;;;;3.88;3.55;;;27.00;28.70;;;;;;4976600;28;20205;-67
2023/06/18 09:16:12;;;;;;;3.47;3.38;;;27.10;28.40;;;;;;4978782;28;20210;-68
2023/06/18 09:18:40;;;;;;;3.80;3.60;;;27.20;27.80;;;;;;4978395;28;20230;-65
2023/06/18 09:21:07;;;;;;;3.72;3.42;;;27.10;28.60;;;;;;4978083;28;20674;-66
2023/06/18 09:23:34;;;;;;;3.97;3.67;;;27.20;28.80;;;;;;4978228;28;20202;-65
2023/06/18 09:26:02;;;;;;;3.38;3.28;;;27.40;28.50;;;;;;4978099;28;20643;-66
2023/06/18 09:28:29;;;;;;;3.50;3.30;;;27.40;28.30;;;;;;4978049;28;20558;-64
2023/06/18 09:31:03;;;;;;;3.70;3.50;;;27.50;28.50;;;;;;4977805;28;20291;-65
2023/06/18 09:33:32;;;;;;;3.55;3.35;;;27.50;28.00;;;;;;4978122;28;20194;-64
2023/06/18 09:36:01;;;;;;;4.60;4.30;;;27.40;27.40;;;;;;4978165;28;20257;-64
2023/06/18 09:38:35;;;;;;;4.22;3.63;;;27.30;27.90;;;;;;4977949;28;20229;-65
2023/06/18 09:41:03;;;;;;;3.25;3.15;;;27.20;28.10;;;;;;4977838;28;20209;-64
2023/06/18 09:43:40;;;;;;;3.83;3.53;;;27.20;27.90;;;;;;4977988;28;20226;-64
2023/06/18 09:46:07;;;;;;;3.80;3.60;;;27.20;28.50;;;;;;4978028;28;20187;-65
2023/06/18 09:48:38;;;;;;;3.38;3.17;;;27.30;28.90;;;;;;4978201;28;20616;-63
2023/06/18 09:51:06;;;;;;;3.25;3.00;;;27.30;28.40;;;;;;4977692;28;20198;-64
2023/06/18 09:53:34;;;;;;;3.70;3.50;;;27.40;28.60;;;;;;4977421;28;20206;-64
2023/06/18 09:56:11;;;;;;;3.50;3.40;;;27.40;28.50;;;;;;4977375;28;20630;-64
2023/06/18 09:58:43;;;;;;;3.53;3.35;;;27.50;29.20;;;;;;4977640;28;20222;-64
2023/06/18 10:01:10;;;;;;;3.30;3.20;;;27.50;28.50;;;;;;4977509;28;20203;-64
2023/06/18 10:03:37;;;;;;;5.38;3.80;;;;;;;;;;4977754;28;20199;-72
2023/06/18 10:06:11;;;;;;;3.60;3.35;;;;;;;;;;4977652;28;20214;-73
2023/06/18 10:08:39;;;;;;;3.70;3.28;;;;;;;;;;4977589;28;20310;-74
2023/06/18 10:11:09;;;;;;;3.85;3.55;;;;;;;;;;4977164;28;20210;-70
2023/06/18 10:13:38;;;;;;;11.73;6.63;;;;;;;;;;4977209;28;20671;-75
2023/06/18 10:16:06;;;;;;;9.95;5.28;;;29.00;45.10;;;;;;4976570;28;20441;-68
2023/06/18 10:18:34;;;;;;;4.20;3.90;;;29.40;37.90;;;;;;4977110;28;20242;-70
2023/06/18 10:21:04;;;;;;;5.88;3.97;;;29.30;35.90;;;;;;4977396;28;20207;-68
2023/06/18 10:23:34;;;;;;;3.22;3.03;;;28.80;36.10;;;;;;4977569;28;20207;-69
2023/06/18 10:26:01;;;;;;;3.67;3.38;;;28.70;36.90;;;;;;4976797;28;20662;-68
2023/06/18 14:19:06;;;;;;;3.05;2.90;;;;;;;;;;5728459;23;20246;-69
2023/06/18 14:21:35;;;;;;;2.92;2.83;;;;;;;;;;4976864;28;20222;-69
2023/06/18 14:24:03;;;;;;;3.30;3.05;;;;;;;;;;4977153;28;20218;-69
2023/06/18 14:26:31;;;;;;;2.67;2.58;;;;;;;;;;4977000;28;20285;-69
2023/06/18 14:28:58;;;;;;;3.67;3.38;;;;;;;;;;4976790;28;20689;-69
2023/06/18 14:31:25;;;;;;;2.90;2.70;;;;;;;;;;4976902;28;20206;-69
2023/06/18 14:33:52;;;;;;;4.07;3.78;;;;;;;;;;4977396;28;20214;-66
2023/06/18 14:36:19;;;;;;;3.08;2.97;;;;;;;;;;4976914;28;20611;-66
2023/06/18 14:38:48;;;;;;;3.40;3.30;;;;;;;;;;4976681;28;20258;-65
2023/06/18 14:41:15;;;;;;;2.40;2.30;;;;;;;;;;4976460;28;20203;-68
2023/06/18 14:43:42;;;;;;;2.70;2.60;;;;;;;;;;4976696;28;20541;-66
2023/06/18 14:46:10;;;;;;;3.22;3.08;;;;;;;;;;4976898;28;20273;-66
2023/06/18 14:48:37;;;;;;;3.00;2.90;;;;;;;;;;4976643;28;20227;-66
2023/06/18 14:51:04;;;;;;;2.75;2.65;;;;;;;;;;4976952;28;20191;-66
2023/06/18 14:53:32;;;;;;;3.80;3.60;;;;;;;;;;4976725;28;20202;-67
2023/06/18 14:56:00;;;;;;;3.25;3.05;;;;;;;;;;4976758;28;20238;-67
2023/06/18 14:58:28;;;;;;;3.30;3.10;;;;;;;;;;4976697;28;20226;-68
2023/06/18 15:00:55;;;;;;;2.78;2.67;;;;;;;;;;4976328;28;20227;-67
2023/06/18 15:03:22;;;;;;;2.75;2.60;;;;;;;;;;4976660;28;20199;-67
2023/06/18 15:05:49;;;;;;;3.78;3.58;;;;;;;;;;4976517;28;20213;-68
2023/06/18 15:08:16;;;;;;;4.57;3.47;;;;;;;;;;4976161;28;20562;-67
2023/06/18 15:10:44;;;;;;;2.90;2.78;;;;;;;;;;4975884;28;20195;-67
2023/06/18 15:13:12;;;;;;;3.25;3.15;;;;;;;;;;4976329;28;20191;-67
2023/06/18 15:15:39;;;;;;;3.10;2.90;;;;;;;;;;4975847;28;20663;-67
2023/06/18 15:18:06;;;;;;;3.50;3.30;;;;;;;;;;4976110;28;20206;-67
2023/06/18 15:20:37;;;;;;;3.22;3.03;;;;;;;;;;4975844;28;20596;-67
2023/06/18 15:23:04;;;;;;;3.08;2.97;;;;;;;;;;4976133;28;20242;-67
2023/06/18 15:25:31;;;;;;;2.80;2.70;;;;;;;;;;4976004;28;20206;-67
2023/06/18 15:27:58;;;;;;;3.45;3.33;;;;;;;;;;4975734;28;20222;-68
2023/06/18 15:30:27;;;;;;;3.20;3.08;;;;;;;;;;4976088;28;20561;-71
2023/06/18 15:32:54;;;;;;;3.05;2.90;;;;;;;;;;4976945;28;20215;-71
2023/06/18 15:35:22;;;;;;;2.97;2.78;;;;;;;;;;4978550;28;20205;-72
2023/06/18 15:37:49;;;;;;;2.53;2.42;;;;;;;;;;4979649;28;20285;-70
2023/06/18 15:40:17;;;;;;;2.25;2.15;;;;;;;;;;4979341;28;20233;-70
2023/06/18 15:42:44;;;;;;;2.20;2.10;;;;;;;;;;4979937;28;20207;-70
2023/06/18 15:45:12;;;;;;;3.13;3.03;;;;;;;;;;4979426;28;20568;-70
2023/06/18 15:47:41;;;;;;;3.17;3.08;;;;;;;;;;4979138;28;20206;-70
2023/06/18 15:50:08;;;;;;;3.53;3.33;;;;;;;;;;4979663;28;20322;-70
2023/06/18 15:52:36;;;;;;;3.53;3.28;;;;;;;;;;4979875;28;20564;-70
2023/06/18 15:55:04;;;;;;;3.22;3.05;;;;;;;;;;4979022;28;20209;-70
2023/06/18 15:57:31;;;;;;;3.10;2.90;;;;;;;;;;4980168;28;20234;-70
2023/06/18 15:59:58;;;;;;;3.00;2.80;;;;;;;;;;4980056;28;20626;-70
2023/06/18 16:02:26;;;;;;;3.55;3.30;;;;;;;;;;4979067;28;20205;-70
2023/06/18 16:04:56;;;;;;;3.22;2.92;;;;;;;;;;4979075;28;20203;-70
2023/06/18 16:07:23;;;;;;;2.88;2.63;;;;;;;;;;4978880;28;20198;-70
2023/06/18 16:09:51;;;;;;;2.80;2.70;;;;;;;;;;4979093;28;20218;-70
2023/06/18 16:12:18;;;;;;;2.53;2.42;;;28.80;46.80;;;;;;4978828;28;20658;-70
2023/06/18 16:14:45;;;;;;;3.40;3.20;;;29.00;48.10;;;;;;4978721;28;20199;-70
2023/06/18 16:17:13;;;;;;;3.22;3.03;;;29.00;47.90;;;;;;4979394;28;20209;-70
2023/06/18 16:19:39;;;;;;;4.30;4.00;;;29.10;47.00;;;;;;4979312;28;20250;-70
2023/06/18 16:22:08;;;;;;;4.00;3.65;;;29.00;46.10;;;;;;4979179;28;20234;-70
2023/06/18 16:24:36;;;;;;;3.60;3.40;;;28.90;46.80;;;;;;4977085;28;20230;-70
2023/06/18 16:27:03;;;;;;;2.67;2.58;;;28.90;46.90;;;;;;4978661;28;20195;-70
2023/06/18 16:29:30;;;;;;;2.90;2.80;;;28.90;47.00;;;;;;4979672;28;20658;-69
2023/06/18 16:31:57;;;;;;;2.92;2.83;;;28.90;47.30;;;;;;4979429;28;20217;-70
2023/06/18 16:34:24;;;;;;;2.78;2.67;;;28.90;47.90;;;;;;4980156;28;20202;-70
2023/06/18 16:36:52;;;;;;;2.53;2.38;;;28.90;48.70;;;;;;4977984;28;20720;-70
2023/06/18 16:39:20;;;;;;;2.05;2.00;;;28.80;48.80;;;;;;4979068;28;20619;-70
2023/06/18 16:41:47;;;;;;;1.88;1.88;;;28.80;42.90;;;;;;4979553;28;20223;-70
2023/06/18 16:44:15;;;;;;;2.53;2.42;;;28.80;42.40;;;;;;4978622;28;20689;-70
2023/06/18 16:46:42;;;;;;;2.05;2.05;;;28.70;43.40;;;;;;4974871;28;20210;-69
2023/06/18 16:49:08;;;;;;;2.17;2.08;;;28.70;43.60;;;;;;4974846;28;20230;-69
2023/06/18 16:51:36;;;;;;;2.97;2.80;;;28.70;43.60;;;;;;4974745;28;20206;-69
2023/06/18 16:54:02;;;;;;;2.00;2.00;;;28.60;42.90;;;;;;4974214;28;20663;-68
2023/06/18 16:56:31;;;;;;;2.30;2.20;;;28.50;43.50;;;;;;4974533;28;20214;-69
2023/06/18 16:58:57;;;;;;;2.67;2.47;;;28.50;44.40;;;;;;4974017;28;20223;-69
2023/06/18 17:01:24;;;;;;;2.60;2.40;;;28.40;43.60;;;;;;4974341;28;20229;-69
2023/06/18 17:03:51;;;;;;;2.65;2.55;;;28.40;43.40;;;;;;4974159;28;20206;-70
2023/06/18 17:06:18;;;;;;;2.22;2.20;;;28.40;43.40;;;;;;4974510;28;20579;-70
2023/06/18 17:08:44;;;;;;;2.65;2.00;;;28.30;43.80;;;;;;4974502;28;20229;-69
2023/06/18 17:11:13;;;;;;;2.50;2.40;;;28.30;43.30;;;;;;4974461;28;20194;-69
2023/06/18 17:13:41;;;;;;;2.72;2.63;;;28.30;42.20;;;;;;4974567;28;20621;-69
2023/06/18 17:16:08;;;;;;;2.97;2.88;;;28.20;41.80;;;;;;4976298;28;20198;-69
2023/06/18 17:18:34;;;;;;;3.00;2.90;;;28.20;40.90;;;;;;4975446;28;20227;-70
2023/06/18 17:21:01;;;;;;;2.97;2.78;;;28.30;41.10;;;;;;4977573;28;20230;-71
2023/06/18 17:23:28;;;;;;;2.67;2.47;;;28.20;41.60;;;;;;4978972;28;20188;-70
2023/06/18 17:25:55;;;;;;;2.60;2.50;;;28.20;42.10;;;;;;4975701;28;20198;-71
2023/06/18 17:28:23;;;;;;;2.50;2.40;;;28.10;42.10;;;;;;4975849;28;20223;-71
2023/06/18 17:30:52;;;;;;;2.13;2.03;;;28.10;43.20;;;;;;4975025;28;20194;-71
2023/06/18 17:33:18;;;;;;;2.22;2.13;;;28.00;43.10;;;;;;4974317;28;20651;-71
2023/06/18 17:35:45;;;;;;;1.77;1.77;;;27.90;43.80;;;;;;4977902;28;20206;-71
2023/06/18 17:38:12;;;;;;;2.13;2.00;;;27.70;43.00;;;;;;4978553;28;20203;-71
2023/06/18 17:40:41;;;;;;;1.90;1.90;;;27.60;43.50;;;;;;4978399;28;20222;-71
2023/06/18 17:43:07;;;;;;;2.05;1.95;;;27.60;42.90;;;;;;4978388;28;20203;-71
2023/06/18 17:45:34;;;;;;;2.22;2.15;;;27.50;43.20;;;;;;4978255;28;20207;-71
2023/06/18 17:48:02;;;;;;;1.67;1.67;;;27.50;43.80;;;;;;4978345;28;20210;-71
2023/06/18 17:50:29;;;;;;;2.30;2.20;;;27.50;44.40;;;;;;4978295;28;20663;-71
2023/06/18 17:52:56;;;;;;;2.50;2.40;;;27.40;43.70;;;;;;4977786;28;20562;-70
2023/06/18 17:55:22;;;;;;;3.10;2.53;;;27.40;44.20;;;;;;4977967;28;20191;-70
2023/06/18 17:57:49;;;;;;;2.42;2.33;;;27.30;43.90;;;;;;4977893;28;20689;-70
2023/06/18 18:00:17;;;;;;;2.80;2.70;;;27.20;43.70;;;;;;4978272;28;20222;-70
2023/06/18 18:02:43;;;;;;;2.28;2.17;;;27.10;44.40;;;;;;4978262;28;20209;-70
2023/06/18 18:05:11;;;;;;;2.33;2.22;;;27.00;45.40;;;;;;4977403;28;20555;-70
2023/06/18 18:07:38;;;;;;;2.20;2.10;;;26.90;46.00;;;;;;4977860;28;20207;-70
2023/06/18 18:10:06;;;;;;;2.20;2.10;;;26.80;46.90;;;;;;4977688;28;20223;-69
2023/06/18 18:12:33;;;;;;;3.13;2.67;;;26.70;47.70;;;;;;4978017;28;20218;-70
2023/06/18 18:14:59;;;;;;;3.90;2.88;;;26.50;48.50;;;;;;4977636;28;20206;-70
2023/06/18 18:17:26;;;;;;;2.30;2.20;;;26.40;49.40;;;;;;4977343;28;20670;-70
2023/06/18 18:19:55;;;;;;;2.88;2.63;;;26.20;50.60;;;;;;4977297;28;20218;-69
2023/06/18 18:22:23;;;;;;;3.13;2.75;;;26.10;50.90;;;;;;4976784;28;20293;-70
2023/06/18 18:24:50;;;;;;;3.60;3.40;;;25.90;51.70;;;;;;4976834;28;20234;-70
2023/06/18 18:27:16;;;;;;;3.80;3.50;;;25.70;49.20;;;;;;4977384;28;20666;-70
2023/06/18 18:29:43;;;;;;;4.38;3.42;;;25.60;48.00;;;;;;4977034;28;20237;-69
2023/06/18 18:32:10;;;;;;;4.30;3.90;;;25.50;48.10;;;;;;4977024;28;20254;-70
2023/06/18 18:34:36;;;;;;;4.40;3.97;;;25.40;48.90;;;;;;4976847;28;20293;-69
2023/06/18 18:37:04;;;;;;;4.15;3.90;;;25.30;49.60;;;;;;4976810;28;20289;-69
2023/06/18 18:39:32;;;;;;;3.83;3.50;;;25.20;50.00;;;;;;4976581;28;20320;-70
2023/06/18 18:41:59;;;;;;;4.35;3.92;;;25.10;50.40;;;;;;4976912;28;20303;-70
2023/06/18 18:44:25;;;;;;;3.70;3.40;;;25.00;51.60;;;;;;4977001;28;20241;-73
2023/06/18 18:46:52;;;;;;;4.20;3.83;;;24.90;53.10;;;;;;4977174;28;20187;-70
2023/06/18 18:49:19;;;;;;;3.50;3.22;;;24.80;54.00;;;;;;4977175;28;20725;-70
2023/06/18 18:51:45;;;;;;;4.10;3.70;;;24.50;54.70;;;;;;4977245;28;20195;-70
2023/06/18 18:54:15;;;;;;;4.00;3.70;;;24.40;56.70;;;;;;4976783;28;20226;-71
2023/06/18 18:56:43;;;;;;;4.13;3.63;;;24.20;59.00;;;;;;4976443;28;20245;-71
2023/06/18 18:59:09;;;;;;;3.65;3.40;;;24.00;61.20;;;;;;4977232;28;20230;-70
2023/06/18 19:01:39;;;;;;;3.40;3.10;;;23.90;63.60;;;;;;4976471;28;20218;-71
2023/06/18 19:04:06;;;;;;;6.63;3.38;;;23.80;66.80;;;;;;4976398;28;20313;-69
2023/06/18 19:06:33;;;;;;;3.88;3.47;;;23.70;70.30;;;;;;4975989;28;20622;-71
2023/06/18 19:09:00;;;;;;;4.07;3.70;;;23.70;74.10;;;;;;4975977;28;20736;-70
2023/06/18 19:11:27;;;;;;;3.30;3.10;;;23.60;76.60;;;;;;4976341;28;20230;-72
2023/06/18 19:13:55;;;;;;;2.67;2.58;;;23.50;77.80;;;;;;4975902;28;20199;-69
2023/06/18 19:16:24;;;;;;;3.35;3.15;;;23.40;78.00;;;;;;4976293;28;20213;-67
2023/06/18 19:18:50;;;;;;;3.85;3.63;;;23.40;77.80;;;;;;4976227;28;20219;-67
2023/06/18 19:21:17;;;;;;;3.92;3.58;;;23.30;78.70;;;;;;4975959;28;20234;-67
2023/06/18 19:23:44;;;;;;;3.55;3.35;;;23.20;81.20;;;;;;4977122;28;20207;-67
2023/06/18 19:26:11;;;;;;;3.22;3.13;;;23.10;83.70;;;;;;4975987;28;20222;-67
2023/06/18 19:28:37;;;;;;;3.05;2.95;;;23.00;84.90;;;;;;4975674;28;20706;-67
2023/06/18 19:31:05;;;;;;;3.58;3.38;;;23.00;86.70;;;;;;4975902;28;20203;-67
2023/06/18 19:33:32;;;;;;;3.22;3.03;;;22.90;89.30;;;;;;4975986;28;20203;-67
2023/06/18 19:35:59;;;;;;;3.30;3.08;;;22.90;90.50;;;;;;4976070;28;20580;-67
2023/06/18 19:38:25;;;;;;;3.92;3.70;;;22.80;91.70;;;;;;4975884;28;20223;-67
2023/06/18 19:40:52;;;;;;;2.80;2.70;;;22.80;92.40;;;;;;4975534;28;20737;-67
2023/06/18 19:43:19;;;;;;;3.33;3.13;;;22.70;92.30;;;;;;4976084;28;20213;-67
2023/06/18 19:45:46;;;;;;;2.90;2.70;;;22.70;93.00;;;;;;4976118;28;20203;-67
2023/06/18 19:48:14;;;;;;;3.08;2.88;;;22.60;93.00;;;;;;4976023;28;20585;-70
2023/06/18 19:50:40;;;;;;;3.10;3.00;;;22.60;93.70;;;;;;4975970;28;20254;-70
2023/06/18 19:53:07;;;;;;;2.83;2.72;;;22.60;94.30;;;;;;4975746;28;20207;-70
2023/06/18 19:55:34;;;;;;;2.47;2.38;;;22.50;94.70;;;;;;4976388;28;20214;-69
2023/06/18 19:58:01;;;;;;;2.65;2.55;;;22.50;95.30;;;;;;4974553;28;20246;-69
2023/06/18 20:00:27;;;;;;;2.33;2.33;;;22.40;95.40;;;;;;4975627;28;20203;-69
2023/06/18 20:02:55;;;;;;;2.40;2.17;;;22.40;96.70;;;;;;4975648;28;20206;-69
2023/06/18 20:05:23;;;;;;;2.75;2.65;;;22.30;96.90;;;;;;4975663;28;20230;-70
2023/06/18 20:07:50;;;;;;;2.45;2.38;;;22.30;96.90;;;;;;4975342;28;20690;-70
2023/06/18 20:10:16;;;;;;;2.40;2.30;;;22.20;97.20;;;;;;4975319;28;20226;-70
2023/06/18 20:12:43;;;;;;;1.95;1.95;;;22.10;97.00;;;;;;4975365;28;20207;-69
2023/06/18 20:15:11;;;;;;;2.05;2.05;;;22.10;97.50;;;;;;4975063;28;20680;-70
2023/06/18 20:17:37;;;;;;;2.30;2.20;;;22.10;97.30;;;;;;4975275;28;20242;-69
2023/06/18 20:20:05;;;;;;;2.40;2.30;;;22.00;98.40;;;;;;4975383;28;20226;-70
2023/06/18 20:22:33;;;;;;;2.15;1.95;;;22.00;99.90;;;;;;4974758;28;20227;-69
2023/06/18 20:25:00;;;;;;;2.47;2.38;;;22.00;99.90;;;;;;4975216;28;20268;-69
2023/06/18 20:27:27;;;;;;;2.33;2.22;;;22.00;99.90;;;;;;4975006;28;20245;-69
2023/06/18 20:29:54;;;;;;;2.28;2.17;;;21.90;99.90;;;;;;4975095;28;20229;-69
2023/06/18 20:32:21;;;;;;;2.28;2.17;;;21.90;99.90;;;;;;5000171;23;20255;-69
2023/06/18 20:34:48;;;;;;;2.60;2.50;;;21.80;99.90;;;;;;4980650;28;20183;-69
2023/06/18 20:37:15;;;;;;;2.60;2.50;;;21.80;99.90;;;;;;4975301;28;20207;-69
2023/06/18 20:39:43;;;;;;;6.10;2.60;;;21.70;99.90;;;;;;4975264;28;20203;-69
2023/06/18 20:42:10;;;;;;;2.35;2.20;;;21.60;99.90;;;;;;4974908;28;20263;-69
2023/06/18 20:44:36;;;;;;;1.85;1.83;;;21.60;99.90;;;;;;4974805;28;20210;-68
2023/06/18 20:47:03;;;;;;;2.60;2.50;;;21.50;99.90;;;;;;4974455;28;20689;-68
2023/06/18 20:49:30;;;;;;;2.13;2.13;;;21.50;99.90;;;;;;4974972;28;20211;-69
2023/06/18 20:51:57;;;;;;;2.38;2.30;;;21.40;99.90;;;;;;4974894;28;20206;-69
2023/06/18 20:54:23;;;;;;;2.08;2.08;;;21.40;99.90;;;;;;4974690;28;20572;-68
2023/06/18 20:56:51;;;;;;;2.17;2.17;;;21.30;99.90;;;;;;4974757;28;20211;-69
2023/06/18 20:59:18;;;;;;;2.78;2.67;;;21.30;99.90;;;;;;4974901;28;20216;-68
2023/06/18 21:01:45;;;;;;;2.60;2.50;;;21.30;99.90;;;;;;4974852;28;20226;-68
2023/06/18 21:04:12;;;;;;;2.95;2.75;;;21.30;99.90;;;;;;4974409;28;20226;-68
2023/06/18 21:06:38;;;;;;;2.50;2.40;;;21.20;99.90;;;;;;4974565;28;20202;-68
2023/06/18 21:09:05;;;;;;;2.80;2.70;;;21.10;99.90;;;;;;4975676;28;20207;-69
2023/06/18 21:11:32;;;;;;;2.75;2.65;;;21.10;99.90;;;;;;4978793;28;20201;-67
2023/06/18 21:14:00;;;;;;;3.38;3.17;;;21.00;99.90;;;;;;4978608;28;20218;-68
2023/06/18 21:16:26;;;;;;;2.53;2.42;;;20.90;99.90;;;;;;4978697;28;20610;-68
2023/06/18 21:18:53;;;;;;;2.85;2.75;;;20.90;99.90;;;;;;4978419;28;20203;-68
2023/06/18 21:21:20;;;;;;;3.20;3.05;;;20.80;99.90;;;;;;4978775;28;20223;-68
2023/06/18 21:23:47;;;;;;;3.22;3.13;;;20.80;99.90;;;;;;4978089;28;20222;-68
2023/06/18 21:26:14;;;;;;;2.90;2.80;;;20.80;99.90;;;;;;4978533;28;20294;-68
2023/06/18 21:28:41;;;;;;;3.00;2.80;;;20.70;99.90;;;;;;4978072;28;20206;-67
2023/06/18 21:31:10;;;;;;;2.78;2.58;;;20.70;99.90;;;;;;4978453;28;20213;-67
2023/06/18 21:33:37;;;;;;;3.05;2.95;;;20.60;99.90;;;;;;4977937;28;20758;-67
2023/06/18 21:36:04;;;;;;;3.13;3.03;;;20.60;99.90;;;;;;4978223;28;20207;-67
2023/06/18 21:38:30;;;;;;;3.25;3.15;;;20.60;99.90;;;;;;4977986;28;20580;-68
2023/06/18 21:40:57;;;;;;;3.25;2.97;;;20.50;99.90;;;;;;4978337;28;20207;-68
